Overview Statistics Trail Chart Weather Telemetry Raw packets
 

This is the latest recevied weather packets stored in our database for station/object IW9CSJ-13. If no packets are shown the sender has not sent any weather packets the latest 10 day(s).

<< 5 6 7 8 9 10 11 >>
Time Temp. Humidity Pressure Rain* Wind** Luminosity Snow
1788183020 31.11° C 41% 1015.2 hPa 0 mm - - -
1788182721 31.11° C 40% 1015.3 hPa 0 mm - - -
1788181521 31.67° C 38% 1015.4 hPa 0 mm - - -
1788172221 32.22° C 44% 1016.1 hPa 0 mm - - -
1788171021 33.33° C 40% 1016.1 hPa 0 mm - - -
1788166520 31.67° C 44% 1016.1 hPa 0 mm - - -
1788165320 31.67° C 46% 1016.1 hPa 0 mm - - -
1788164121 31.11° C 51% 1015.9 hPa 0 mm - - -
1788163820 31.11° C 51% 1015.9 hPa 0 mm - - -
1788162620 30.56° C 51% 1015.7 hPa 0 mm - - -
1788162021 30.56° C 50% 1015.6 hPa 0 mm - - -
1788159021 29.44° C 55% 1015.1 hPa 0 mm - - -
1788157821 28.89° C 55% 1014.9 hPa 0 mm - - -
1788114321 28.33° C 73% 1014.5 hPa 0 mm - - -
1788113421 28.33° C 71% 1014.1 hPa 0 mm - - -
1788112522 28.89° C 71% 1014 hPa 0 mm - - -
1788110421 29.44° C 67% 1013.8 hPa 0 mm - - -
1788109521 30° C 65% 1013.9 hPa 0 mm - - -
1788109221 30° C 64% 1014 hPa 0 mm - - -
1788108921 30° C 64% 1014 hPa 0 mm - - -
1788106821 31.67° C 55% 1014.1 hPa 0 mm - - -
1788102021 34.44° C 37% 1014.5 hPa 0 mm - - -
1788099021 35° C 28% 1014.6 hPa 0 mm - - -
1788019520 33.89° C 36% 1016.4 hPa 0 mm - - -
1788010520 31.67° C 63% 1016.9 hPa 0 mm - - -

* Rain latest hour (hover to see other rain measurements)
** Current wind speed in m/s (hover to see current wind gust speed)